Time;durP1;ratioP1;P1;durP2;ratioP2;P2;SDS_P1;SDS_P2;PMS_P1;PMS_P2;Temp;Humidity;BMP_temperature;BMP_pressure;BME280_temperature;BME280_humidity;BME280_pressure;Samples;Min_cycle;Max_cycle;Signal;HPM_P1;HPM_P2
2021/06/19 00:02:19;;;;;;;12.20;5.65;;;14.90;99.90;;;;;;4379576;32;20093;-70
2021/06/19 00:04:45;;;;;;;10.45;5.12;;;15.00;99.90;;;;;;4363214;32;20070;-69
2021/06/19 00:07:11;;;;;;;15.90;6.03;;;15.10;99.90;;;;;;4364208;32;20476;-69
2021/06/19 00:09:38;;;;;;;11.98;5.22;;;15.10;99.90;;;;;;4364652;32;20090;-70
2021/06/19 00:12:05;;;;;;;13.75;5.62;;;14.90;99.90;;;;;;4364723;32;20067;-69
2021/06/19 00:14:31;;;;;;;9.25;5.85;;;14.90;99.90;;;;;;4327415;32;20139;-70
2021/06/19 00:16:57;;;;;;;9.30;4.87;;;15.00;99.90;;;;;;4351805;32;20575;-69
2021/06/19 00:19:23;;;;;;;10.20;5.25;;;15.10;99.90;;;;;;4364189;32;20166;-70
2021/06/19 00:21:49;;;;;;;8.50;5.03;;;14.90;99.90;;;;;;4352278;32;20603;-69
2021/06/19 00:24:21;;;;;;;10.90;5.45;;;14.90;99.90;;;;;;4339428;32;20151;-69
2021/06/19 00:26:47;;;;;;;10.30;4.97;;;15.00;99.90;;;;;;4364304;32;20170;-70
2021/06/19 00:29:16;;;;;;;9.48;4.85;;;15.00;99.90;;;;;;4351828;32;20077;-69
2021/06/19 00:31:43;;;;;;;10.00;5.68;;;15.00;99.90;;;;;;4376085;32;20086;-70
2021/06/19 00:34:09;;;;;;;9.30;5.18;;;15.10;99.90;;;;;;4339574;32;20085;-70
2021/06/19 00:36:36;;;;;;;8.13;5.00;;;15.10;99.90;;;;;;4343336;32;20507;-70
2021/06/19 00:39:04;;;;;;;10.90;4.97;;;15.20;99.90;;;;;;4352005;32;20078;-70
2021/06/19 00:41:30;;;;;;;8.38;5.45;;;15.10;99.90;;;;;;4339175;32;20074;-70
2021/06/19 00:43:56;;;;;;;8.80;5.20;;;15.20;99.90;;;;;;4339352;32;20082;-70
2021/06/19 00:46:22;;;;;;;10.38;5.65;;;15.20;99.90;;;;;;4363918;32;20152;-70
2021/06/19 00:48:49;;;;;;;7.80;4.32;;;15.10;99.90;;;;;;4351374;32;20066;-70
2021/06/19 00:51:15;;;;;;;8.70;5.10;;;15.20;99.90;;;;;;4351276;32;20489;-70
2021/06/19 00:53:41;;;;;;;8.95;5.03;;;15.20;99.90;;;;;;4338806;32;20150;-69
2021/06/19 00:56:07;;;;;;;8.88;5.00;;;15.20;99.90;;;;;;4362849;32;20089;-70
2021/06/19 00:58:33;;;;;;;9.90;4.85;;;15.30;99.90;;;;;;4326618;32;20501;-70
2021/06/19 01:00:59;;;;;;;13.55;5.25;;;15.20;99.90;;;;;;4351481;32;20070;-69
2021/06/19 01:03:25;;;;;;;10.10;5.40;;;15.20;99.90;;;;;;4363704;32;20178;-70
2021/06/19 01:05:52;;;;;;;14.80;6.00;;;15.20;99.90;;;;;;4374115;32;20158;-68
2021/06/19 01:08:18;;;;;;;12.88;5.15;;;15.20;99.90;;;;;;4353688;32;20230;-68
2021/06/19 01:10:44;;;;;;;11.27;4.90;;;15.30;99.90;;;;;;4365874;32;20211;-69
2021/06/19 01:13:10;;;;;;;11.12;4.85;;;15.30;99.90;;;;;;4366050;32;20086;-69
2021/06/19 01:15:36;;;;;;;6.50;4.32;;;15.30;99.90;;;;;;4392723;32;20162;-68
2021/06/19 01:18:02;;;;;;;7.00;4.10;;;15.20;99.90;;;;;;4378875;32;20481;-69
2021/06/19 01:20:34;;;;;;;7.70;4.47;;;15.30;99.90;;;;;;4392233;32;20126;-69
2021/06/19 01:23:01;;;;;;;9.50;5.03;;;15.20;99.90;;;;;;4353668;32;20524;-69
2021/06/19 01:25:32;;;;;;;8.75;5.28;;;15.20;99.90;;;;;;4353880;32;20078;-70
2021/06/19 01:27:58;;;;;;;15.15;5.60;;;15.30;99.90;;;;;;4353366;32;20082;-70
2021/06/19 01:30:28;;;;;;;10.95;5.75;;;15.40;99.90;;;;;;4366064;32;20074;-69
2021/06/19 01:32:54;;;;;;;12.25;5.70;;;15.60;99.90;;;;;;4355080;32;20101;-69
2021/06/19 01:35:21;;;;;;;19.55;9.57;;;15.60;99.90;;;;;;4364135;32;20162;-69
2021/06/19 01:37:49;;;;;;;11.15;6.70;;;15.80;99.90;;;;;;4375605;32;20512;-70
2021/06/19 01:40:23;;;;;;;13.68;6.12;;;15.90;99.90;;;;;;4375677;32;20157;-69
2021/06/19 01:42:50;;;;;;;11.32;6.00;;;15.90;99.90;;;;;;4351012;32;20077;-70
2021/06/19 01:45:22;;;;;;;12.18;5.53;;;15.80;99.90;;;;;;4363203;32;20066;-70
2021/06/19 01:47:49;;;;;;;17.37;6.43;;;15.80;99.90;;;;;;4363077;32;20179;-70
2021/06/19 01:50:21;;;;;;;16.08;6.85;;;15.90;99.90;;;;;;4350489;32;20093;-70
2021/06/19 01:52:49;;;;;;;14.87;6.93;;;16.10;99.90;;;;;;4351573;32;20093;-68
2021/06/19 01:55:15;;;;;;;17.05;7.15;;;16.10;99.90;;;;;;4362447;32;20077;-68
2021/06/19 01:57:42;;;;;;;15.35;6.70;;;16.10;99.90;;;;;;4363539;32;20149;-69
2021/06/19 02:00:16;;;;;;;13.70;5.87;;;16.30;99.80;;;;;;4379798;32;20137;-69
2021/06/19 02:02:43;;;;;;;11.43;5.20;;;16.30;99.90;;;;;;4374894;32;20063;-69
2021/06/19 02:05:10;;;;;;;11.68;5.37;;;16.40;99.90;;;;;;4359806;32;20081;-70
2021/06/19 02:07:51;;;;;;;12.93;6.18;;;16.40;99.90;;;;;;4335884;32;20177;-70
2021/06/19 02:10:19;;;;;;;11.77;5.78;;;16.40;99.90;;;;;;4347836;32;20079;-68
2021/06/19 02:12:46;;;;;;;13.70;6.32;;;16.40;99.90;;;;;;4348224;32;20148;-69
2021/06/19 02:15:12;;;;;;;14.50;6.40;;;16.40;99.90;;;;;;4347551;32;20120;-69
2021/06/19 02:17:38;;;;;;;13.50;6.40;;;16.40;99.90;;;;;;4360461;32;20069;-68
2021/06/19 02:20:09;;;;;;;15.07;6.30;;;16.50;99.90;;;;;;4347622;32;20529;-69
2021/06/19 02:22:36;;;;;;;12.23;6.85;;;16.70;99.90;;;;;;4348075;32;20071;-68
2021/06/19 02:25:05;;;;;;;13.23;7.05;;;16.70;99.90;;;;;;4347707;32;20636;-68
2021/06/19 02:27:31;;;;;;;12.57;6.40;;;16.60;99.90;;;;;;4335429;32;20098;-69
2021/06/19 02:29:57;;;;;;;17.55;8.70;;;16.70;99.90;;;;;;4335640;32;20172;-70
2021/06/19 02:32:23;;;;;;;19.35;9.77;;;16.70;99.90;;;;;;4347620;32;20460;-70
2021/06/19 02:34:50;;;;;;;21.70;10.23;;;16.80;99.90;;;;;;4320740;33;20150;-69
2021/06/19 02:37:17;;;;;;;31.73;14.60;;;16.80;99.90;;;;;;4332964;33;20102;-70
2021/06/19 02:39:43;;;;;;;36.60;16.60;;;16.90;99.90;;;;;;4344986;33;20559;-70
2021/06/19 02:42:09;;;;;;;34.42;15.20;;;16.90;99.90;;;;;;4332819;33;20071;-70
2021/06/19 02:44:36;;;;;;;38.33;14.15;;;17.10;99.90;;;;;;4333232;33;20090;-70
2021/06/19 02:47:03;;;;;;;27.45;11.73;;;17.10;99.90;;;;;;4345262;32;20150;-70
2021/06/19 02:49:30;;;;;;;19.10;9.60;;;17.20;99.90;;;;;;4345018;33;20513;-70
2021/06/19 02:51:57;;;;;;;16.85;8.52;;;17.20;99.90;;;;;;4332368;33;20525;-69
2021/06/19 02:54:23;;;;;;;16.60;8.63;;;17.30;99.90;;;;;;4345181;33;20067;-70
2021/06/19 02:56:49;;;;;;;15.63;7.55;;;17.30;99.90;;;;;;4357314;32;20063;-70
2021/06/19 02:59:15;;;;;;;14.82;6.97;;;17.40;99.90;;;;;;4345115;33;20158;-69
2021/06/19 03:01:42;;;;;;;11.88;6.28;;;17.40;99.90;;;;;;4345206;33;20070;-70
2021/06/19 03:04:08;;;;;;;10.30;6.05;;;17.50;99.90;;;;;;4332582;32;20069;-70
2021/06/19 03:06:34;;;;;;;11.48;5.47;;;17.60;99.90;;;;;;4347495;32;20086;-68
2021/06/19 03:09:01;;;;;;;11.98;6.00;;;17.70;99.90;;;;;;4347492;32;20519;-70
2021/06/19 03:11:27;;;;;;;11.68;4.85;;;17.70;99.90;;;;;;4359467;32;20082;-70
2021/06/19 03:13:54;;;;;;;8.30;5.20;;;17.80;99.90;;;;;;4347264;32;20067;-70
2021/06/19 03:16:20;;;;;;;9.63;4.22;;;17.90;99.90;;;;;;4347673;32;20063;-70
2021/06/19 03:18:46;;;;;;;6.87;4.47;;;18.00;99.90;;;;;;4347794;32;20067;-70
2021/06/19 03:21:12;;;;;;;9.10;4.22;;;18.00;99.90;;;;;;4339757;32;20630;-70
2021/06/19 03:23:38;;;;;;;5.97;4.12;;;18.10;99.90;;;;;;4363727;32;20093;-69
2021/06/19 03:26:04;;;;;;;6.47;3.62;;;18.10;99.90;;;;;;4350020;32;20094;-69
2021/06/19 03:28:30;;;;;;;8.65;4.00;;;18.10;99.90;;;;;;4362424;32;20082;-70
2021/06/19 03:30:57;;;;;;;7.32;3.62;;;18.20;99.90;;;;;;4350427;32;20074;-68
2021/06/19 03:33:23;;;;;;;6.90;3.90;;;18.30;99.90;;;;;;4386053;32;20096;-70
2021/06/19 03:35:49;;;;;;;9.57;4.07;;;18.40;99.90;;;;;;4354838;32;20066;-70
2021/06/19 03:38:15;;;;;;;7.53;3.17;;;18.40;99.90;;;;;;4367697;32;20484;-69
2021/06/19 03:40:41;;;;;;;5.78;2.78;;;18.50;99.90;;;;;;4354748;32;20104;-70
2021/06/19 03:43:08;;;;;;;5.50;2.53;;;18.60;95.40;;;;;;4367428;32;20080;-69
2021/06/19 03:45:35;;;;;;;5.00;2.25;;;18.70;93.90;;;;;;4380728;32;20238;-70
2021/06/19 03:48:02;;;;;;;5.28;2.60;;;18.80;91.20;;;;;;4356168;32;20103;-70
2021/06/19 03:50:28;;;;;;;4.95;2.20;;;18.90;87.30;;;;;;4355000;32;20168;-70
2021/06/19 03:52:56;;;;;;;3.03;2.03;;;18.90;78.10;;;;;;4355139;32;20085;-71
2021/06/19 03:55:23;;;;;;;3.30;2.00;;;18.90;74.90;;;;;;4367568;32;20506;-69
2021/06/19 03:57:49;;;;;;;4.12;1.55;;;19.10;76.60;;;;;;4367468;32;20081;-70
2021/06/19 04:00:17;;;;;;;3.70;2.00;;;19.10;74.20;;;;;;4354598;32;20073;-70
2021/06/19 04:02:43;;;;;;;3.78;2.15;;;19.10;78.90;;;;;;4342238;32;20069;-69
2021/06/19 04:05:10;;;;;;;2.28;1.73;;;19.30;73.70;;;;;;4354919;32;20206;-70
2021/06/19 04:07:37;;;;;;;4.93;2.22;;;19.30;70.70;;;;;;4354202;32;20168;-69
2021/06/19 04:10:05;;;;;;;2.35;1.90;;;19.20;79.70;;;;;;4366910;32;20100;-70
2021/06/19 04:12:32;;;;;;;3.95;2.20;;;19.30;82.00;;;;;;4366728;32;20445;-69
2021/06/19 04:14:58;;;;;;;2.70;1.70;;;19.30;77.60;;;;;;4392997;32;20077;-69
2021/06/19 04:17:24;;;;;;;2.50;1.55;;;19.40;62.00;;;;;;4379366;32;20069;-70
2021/06/19 04:19:50;;;;;;;1.80;1.20;;;19.60;56.10;;;;;;4378861;32;20144;-70
2021/06/19 04:22:16;;;;;;;1.05;0.93;;;19.60;53.80;;;;;;4392845;32;20080;-70
2021/06/19 04:24:43;;;;;;;2.00;1.60;;;19.60;54.20;;;;;;4353933;32;20512;-69
2021/06/19 04:27:15;;;;;;;2.03;1.52;;;19.80;58.00;;;;;;4354213;32;20437;-70
2021/06/19 04:29:41;;;;;;;2.28;1.40;;;20.40;59.90;;;;;;4367189;32;20065;-68
2021/06/19 04:32:08;;;;;;;2.05;1.65;;;22.20;50.30;;;;;;4355127;32;20518;-69
2021/06/19 04:34:35;;;;;;;1.92;1.50;;;23.30;44.50;;;;;;4379126;32;20169;-71
2021/06/19 04:37:01;;;;;;;3.30;1.67;;;23.40;43.90;;;;;;4351268;32;20138;-69
2021/06/19 04:39:27;;;;;;;3.05;1.70;;;24.30;40.50;;;;;;4351767;32;20089;-69
2021/06/19 04:41:57;;;;;;;2.00;1.45;;;24.20;39.70;;;;;;4363751;32;20463;-70
2021/06/19 04:47:25;;;;;;;1.92;1.33;;;22.90;37.60;;;;;;4342927;32;20086;-70
2021/06/19 04:49:53;;;;;;;2.50;1.33;;;23.50;39.00;;;;;;4364897;32;20175;-70
2021/06/19 04:52:20;;;;;;;2.35;0.82;;;23.70;36.50;;;;;;4363762;32;20078;-70
2021/06/19 04:54:46;;;;;;;3.05;1.42;;;23.20;37.90;;;;;;4339520;32;20094;-70
2021/06/19 04:57:12;;;;;;;6.65;4.12;;;23.70;36.70;;;;;;4363587;32;20086;-70
2021/06/19 04:59:39;;;;;;;4.97;2.22;;;23.90;38.40;;;;;;4363316;32;20456;-70
2021/06/19 05:02:05;;;;;;;5.25;2.08;;;24.20;34.70;;;;;;4351606;32;20437;-69
2021/06/19 05:04:31;;;;;;;1.55;1.15;;;24.00;35.60;;;;;;4353706;32;20077;-69
2021/06/19 05:06:57;;;;;;;3.33;1.90;;;23.80;36.70;;;;;;4378788;32;20059;-69
2021/06/19 05:09:23;;;;;;;2.28;1.58;;;23.90;38.00;;;;;;4367922;32;20074;-70
2021/06/19 05:11:50;;;;;;;1.40;1.20;;;23.80;37.90;;;;;;4380261;32;20073;-69
2021/06/19 05:14:16;;;;;;;1.83;1.48;;;24.20;38.90;;;;;;4366161;32;20097;-69
2021/06/19 05:16:42;;;;;;;2.95;1.48;;;23.50;38.40;;;;;;4366249;32;20097;-70
2021/06/19 05:19:09;;;;;;;4.00;1.45;;;24.30;36.50;;;;;;4366161;32;20489;-70
2021/06/19 05:21:35;;;;;;;3.35;1.37;;;25.00;34.40;;;;;;4378256;32;20223;-69
2021/06/19 05:24:01;;;;;;;2.72;1.30;;;25.20;33.50;;;;;;4365910;32;20485;-71
2021/06/19 05:26:27;;;;;;;1.83;1.27;;;25.00;33.30;;;;;;4365869;32;20508;-70
2021/06/19 05:28:53;;;;;;;3.70;1.77;;;24.80;34.60;;;;;;4365592;32;20136;-70
2021/06/19 05:31:20;;;;;;;2.37;1.50;;;24.70;36.60;;;;;;4378267;32;20492;-69
2021/06/19 05:33:46;;;;;;;2.40;1.52;;;25.10;35.90;;;;;;4377543;32;20169;-69
2021/06/19 05:36:12;;;;;;;1.60;1.50;;;25.70;34.80;;;;;;4338360;32;20081;-70
2021/06/19 05:38:38;;;;;;;3.25;1.60;;;24.80;37.20;;;;;;4338451;32;20498;-69
2021/06/19 05:41:04;;;;;;;5.55;1.65;;;25.00;36.70;;;;;;4362978;32;20090;-70
2021/06/19 05:43:31;;;;;;;4.65;1.73;;;25.40;35.50;;;;;;4362977;32;20075;-70
2021/06/19 05:45:57;;;;;;;3.00;1.45;;;24.80;37.30;;;;;;4351024;32;20094;-70
2021/06/19 05:48:23;;;;;;;3.97;1.42;;;25.70;34.90;;;;;;4363572;32;20224;-70
2021/06/19 05:50:49;;;;;;;2.20;1.60;;;25.40;34.80;;;;;;4362981;32;20081;-70
2021/06/19 05:53:15;;;;;;;3.83;1.60;;;25.60;34.20;;;;;;4350060;32;20501;-70
2021/06/19 05:55:41;;;;;;;2.92;1.52;;;25.10;35.40;;;;;;4362433;32;20074;-70
2021/06/19 05:58:09;;;;;;;3.75;1.50;;;25.20;36.90;;;;;;4362586;32;20082;-69
2021/06/19 06:00:37;;;;;;;4.40;1.75;;;26.00;33.30;;;;;;4362834;32;20149;-68
2021/06/19 06:03:04;;;;;;;2.22;1.50;;;25.50;35.00;;;;;;4350854;32;20101;-70
2021/06/19 06:05:31;;;;;;;3.00;1.67;;;26.20;33.00;;;;;;4343946;32;20149;-69
2021/06/19 06:07:59;;;;;;;1.50;1.40;;;26.30;32.40;;;;;;4338333;32;20239;-70
2021/06/19 06:10:29;;;;;;;2.08;1.50;;;26.10;33.60;;;;;;4350568;32;20147;-71
2021/06/19 06:12:58;;;;;;;3.95;1.50;;;25.60;34.50;;;;;;4351131;32;20075;-70
2021/06/19 06:15:25;;;;;;;2.22;1.80;;;25.80;34.00;;;;;;4350641;32;20063;-70
2021/06/19 06:17:51;;;;;;;3.90;1.40;;;25.30;34.50;;;;;;4325914;32;20497;-70
2021/06/19 06:20:18;;;;;;;3.80;1.90;;;25.20;34.70;;;;;;4350290;32;20085;-70
2021/06/19 06:22:44;;;;;;;2.70;1.70;;;25.80;34.30;;;;;;4350694;32;20078;-70
2021/06/19 06:25:11;;;;;;;3.83;1.60;;;25.40;33.00;;;;;;4349874;32;20077;-70
2021/06/19 06:27:39;;;;;;;3.70;1.48;;;26.20;33.00;;;;;;4350494;32;20062;-69
2021/06/19 06:30:06;;;;;;;6.22;1.90;;;24.70;35.00;;;;;;4338291;32;20076;-70
2021/06/19 06:32:34;;;;;;;2.15;1.60;;;24.30;36.70;;;;;;4325618;32;20070;-70
2021/06/19 06:35:00;;;;;;;1.40;1.30;;;23.70;38.90;;;;;;4368744;32;20082;-69
2021/06/19 06:37:27;;;;;;;3.10;1.87;;;23.70;37.50;;;;;;4362356;32;20054;-71
2021/06/19 06:39:53;;;;;;;3.95;2.00;;;23.80;39.40;;;;;;4362867;32;20085;-71
2021/06/19 06:42:19;;;;;;;2.53;1.83;;;23.90;38.90;;;;;;4350016;32;20069;-70
2021/06/19 06:44:46;;;;;;;2.95;1.42;;;23.90;39.70;;;;;;4354396;32;20089;-69
2021/06/19 06:47:12;;;;;;;2.17;1.50;;;24.20;39.50;;;;;;4371633;32;20078;-70
2021/06/19 06:49:39;;;;;;;1.75;1.55;;;23.70;38.80;;;;;;4361385;32;20069;-69
2021/06/19 06:52:05;;;;;;;2.78;1.55;;;23.50;39.30;;;;;;4360541;32;20070;-70
2021/06/19 06:54:38;;;;;;;3.28;1.40;;;23.60;39.20;;;;;;4357874;32;20090;-70
2021/06/19 06:57:07;;;;;;;2.62;1.40;;;23.90;39.30;;;;;;4367832;32;20082;-71
2021/06/19 06:59:33;;;;;;;1.10;1.02;;;23.90;39.10;;;;;;4369285;32;20088;-70
2021/06/19 07:01:59;;;;;;;4.25;1.52;;;24.00;38.00;;;;;;4340945;32;20069;-70
2021/06/19 07:04:26;;;;;;;1.95;1.30;;;23.80;38.00;;;;;;4366606;32;20074;-70
2021/06/19 07:06:52;;;;;;;3.15;1.30;;;24.10;37.60;;;;;;4367567;32;20073;-70
2021/06/19 07:09:18;;;;;;;1.37;1.23;;;24.10;37.60;;;;;;4367744;32;20443;-69
2021/06/19 07:11:44;;;;;;;2.90;1.35;;;24.20;37.30;;;;;;4367267;32;20469;-69
2021/06/19 07:14:10;;;;;;;2.62;1.58;;;24.00;37.00;;;;;;4380012;32;20066;-69
2021/06/19 07:16:37;;;;;;;1.85;1.37;;;24.00;36.70;;;;;;4367631;32;20066;-69
2021/06/19 07:19:03;;;;;;;2.28;1.50;;;24.30;37.40;;;;;;4355164;32;20140;-69
2021/06/19 07:21:30;;;;;;;1.73;1.30;;;23.90;37.50;;;;;;4379866;32;20082;-69
2021/06/19 07:23:56;;;;;;;2.25;1.42;;;23.80;36.50;;;;;;4368142;32;20058;-69
2021/06/19 07:26:23;;;;;;;1.58;1.33;;;24.20;36.10;;;;;;4355191;32;20080;-68
2021/06/19 07:28:49;;;;;;;3.17;1.50;;;24.00;35.00;;;;;;4355112;32;20100;-70
2021/06/19 07:31:15;;;;;;;2.28;1.50;;;24.50;34.50;;;;;;4367675;32;20482;-69
2021/06/19 07:33:42;;;;;;;1.95;1.73;;;24.00;35.50;;;;;;4380369;32;20150;-71
2021/06/19 07:36:10;;;;;;;1.67;1.50;;;24.40;36.00;;;;;;4365381;32;20062;-70
2021/06/19 07:38:36;;;;;;;2.85;1.27;;;24.30;36.10;;;;;;4341611;32;20100;-70
2021/06/19 07:41:03;;;;;;;3.40;1.77;;;24.10;36.40;;;;;;4365575;32;20074;-69
2021/06/19 07:43:30;;;;;;;4.18;1.40;;;24.00;36.40;;;;;;4365601;32;20062;-70
2021/06/19 07:45:56;;;;;;;3.85;1.30;;;23.40;36.60;;;;;;4365814;32;20433;-69
2021/06/19 07:48:23;;;;;;;2.87;1.62;;;24.10;36.40;;;;;;4365038;32;20077;-69
2021/06/19 07:50:49;;;;;;;2.60;1.65;;;24.20;35.30;;;;;;4352589;32;20078;-71
2021/06/19 07:53:15;;;;;;;2.20;1.40;;;24.80;35.20;;;;;;4364408;32;20082;-69
2021/06/19 07:55:42;;;;;;;3.35;1.83;;;24.70;35.10;;;;;;4364885;32;20138;-70
2021/06/19 07:58:08;;;;;;;2.17;1.20;;;25.30;35.20;;;;;;4364133;32;20568;-70
2021/06/19 08:00:34;;;;;;;2.80;1.67;;;24.80;34.60;;;;;;4364857;32;20092;-70
2021/06/19 08:03:00;;;;;;;2.65;1.55;;;24.30;34.70;;;;;;4364729;32;20090;-70
2021/06/19 08:05:27;;;;;;;2.22;1.40;;;24.50;35.20;;;;;;4369343;32;20094;-70
2021/06/19 08:07:53;;;;;;;2.40;1.20;;;24.40;34.70;;;;;;4364806;32;20097;-70
2021/06/19 08:10:20;;;;;;;3.70;1.70;;;24.10;34.40;;;;;;4340084;32;20079;-69
2021/06/19 08:12:46;;;;;;;4.18;1.90;;;24.40;35.10;;;;;;4352149;32;20515;-70
2021/06/19 08:15:13;;;;;;;3.67;1.65;;;24.40;34.50;;;;;;4365398;32;20097;-70
2021/06/19 08:17:39;;;;;;;3.33;1.73;;;24.70;34.90;;;;;;4352437;32;20154;-69
2021/06/19 08:20:06;;;;;;;3.28;1.58;;;24.40;34.80;;;;;;4339463;32;20448;-70
2021/06/19 08:22:33;;;;;;;5.90;2.17;;;24.50;35.50;;;;;;4339731;32;20171;-69
2021/06/19 08:24:59;;;;;;;2.67;1.87;;;24.90;34.80;;;;;;4351789;32;20144;-69
2021/06/19 08:27:26;;;;;;;4.85;1.73;;;24.70;35.20;;;;;;4351424;32;20456;-70
2021/06/19 08:29:53;;;;;;;5.50;1.70;;;25.40;35.10;;;;;;4339333;32;20097;-70
2021/06/19 08:32:19;;;;;;;1.58;1.30;;;25.20;33.40;;;;;;4363838;32;20152;-68
2021/06/19 08:34:46;;;;;;;2.03;1.80;;;24.70;35.20;;;;;;4368575;32;20077;-70
2021/06/19 08:37:12;;;;;;;1.80;1.60;;;25.50;34.50;;;;;;4351965;32;20088;-70
2021/06/19 08:39:38;;;;;;;2.08;1.50;;;25.50;33.50;;;;;;4339620;32;20175;-69
2021/06/19 08:42:05;;;;;;;2.62;1.52;;;24.90;32.80;;;;;;4339670;32;20069;-70
2021/06/19 08:44:31;;;;;;;1.98;1.40;;;25.40;33.70;;;;;;4339795;32;20085;-69
2021/06/19 08:46:58;;;;;;;3.10;1.52;;;24.80;33.30;;;;;;4353863;32;20452;-70
2021/06/19 08:49:26;;;;;;;2.75;1.50;;;24.80;33.50;;;;;;4326967;32;20080;-70
2021/06/19 08:51:56;;;;;;;5.30;1.60;;;25.00;33.00;;;;;;4351930;32;20078;-70
2021/06/19 08:54:23;;;;;;;3.55;2.30;;;25.30;33.80;;;;;;4340135;32;20096;-71
2021/06/19 08:56:50;;;;;;;3.10;1.73;;;26.00;33.10;;;;;;4339065;32;20067;-69
2021/06/19 08:59:16;;;;;;;2.25;1.60;;;25.40;33.20;;;;;;4338786;32;20090;-69
2021/06/19 09:01:43;;;;;;;2.00;1.65;;;25.60;33.00;;;;;;4339264;32;20148;-70
2021/06/19 09:04:10;;;;;;;4.00;1.90;;;25.80;32.20;;;;;;4339262;32;20074;-70
2021/06/19 09:06:41;;;;;;;2.85;1.48;;;25.50;32.40;;;;;;4351539;32;20150;-70
2021/06/19 09:09:17;;;;;;;5.25;1.70;;;25.60;31.80;;;;;;4339007;32;20078;-69
2021/06/19 09:11:54;;;;;;;1.55;1.30;;;25.50;33.00;;;;;;4338915;32;20094;-69
2021/06/19 09:14:26;;;;;;;1.55;1.30;;;25.20;32.90;;;;;;4350907;32;20078;-70
2021/06/19 09:17:03;;;;;;;3.80;1.80;;;25.00;33.00;;;;;;4370080;32;20054;-69
2021/06/19 09:19:34;;;;;;;4.57;1.85;;;25.40;32.70;;;;;;4366335;32;20088;-70
2021/06/19 09:22:21;;;;;;;1.73;1.50;;;26.20;32.10;;;;;;4366009;32;20066;-70
2021/06/19 09:24:54;;;;;;;4.37;1.90;;;25.40;31.90;;;;;;4341874;32;20066;-70
2021/06/19 09:27:45;;;;;;;5.28;1.70;;;26.10;30.50;;;;;;4365739;32;20521;-70
2021/06/19 09:30:16;;;;;;;1.75;1.50;;;26.20;31.50;;;;;;4378667;32;20580;-70
2021/06/19 09:32:53;;;;;;;2.75;1.80;;;26.20;30.80;;;;;;4352825;32;20105;-70
2021/06/19 09:35:26;;;;;;;1.55;1.25;;;26.20;32.60;;;;;;4358569;32;20085;-69
2021/06/19 09:37:58;;;;;;;4.70;1.75;;;26.30;30.20;;;;;;4362444;32;20062;-70
2021/06/19 09:40:39;;;;;;;1.50;1.33;;;26.30;30.70;;;;;;4351600;32;20073;-69
2021/06/19 09:43:27;;;;;;;3.30;2.03;;;26.50;31.00;;;;;;4338999;32;20090;-70
2021/06/19 09:46:10;;;;;;;2.10;1.77;;;26.70;31.00;;;;;;4351714;32;20077;-70
2021/06/19 09:48:44;;;;;;;4.43;1.62;;;26.60;29.60;;;;;;4338474;32;20073;-69
2021/06/19 09:51:24;;;;;;;4.20;1.80;;;26.60;30.40;;;;;;4350746;32;20078;-69
2021/06/19 09:53:52;;;;;;;3.85;1.60;;;26.50;30.90;;;;;;4352420;32;20063;-71
2021/06/19 09:56:20;;;;;;;3.67;1.87;;;27.30;29.50;;;;;;4362889;32;20159;-70
2021/06/19 09:58:49;;;;;;;3.83;1.70;;;26.20;30.10;;;;;;4350460;32;20162;-69
2021/06/19 10:01:21;;;;;;;2.20;1.67;;;26.70;30.60;;;;;;4338302;32;20434;-69
2021/06/19 10:03:56;;;;;;;4.40;2.10;;;26.30;30.60;;;;;;4350003;32;20082;-69
2021/06/19 10:06:24;;;;;;;3.43;1.60;;;26.60;30.10;;;;;;4361189;32;20078;-70
2021/06/19 10:08:51;;;;;;;2.37;1.55;;;26.50;30.90;;;;;;4350137;32;20301;-70
2021/06/19 10:12:34;;;;;;;3.33;1.70;;;26.50;30.60;;;;;;3831963;37;20067;-69
2021/06/19 10:15:07;;;;;;;3.80;1.80;;;26.60;30.10;;;;;;4366143;32;20069;-70
2021/06/19 10:17:44;;;;;;;5.00;1.90;;;26.10;30.60;;;;;;4353386;32;20163;-70
2021/06/19 10:20:13;;;;;;;2.25;1.50;;;26.80;30.20;;;;;;4366451;32;20069;-69
2021/06/19 10:22:41;;;;;;;5.03;1.80;;;26.70;30.30;;;;;;4378341;32;20066;-69
2021/06/19 10:25:10;;;;;;;7.60;2.75;;;26.40;30.50;;;;;;4366102;32;20074;-73
2021/06/19 10:27:39;;;;;;;8.00;1.80;;;27.10;31.30;;;;;;4354070;32;20505;-71
2021/06/19 10:30:07;;;;;;;1.58;1.48;;;27.00;30.00;;;;;;4353512;32;20441;-70
2021/06/19 10:33:03;;;;;;;3.17;1.50;;;26.30;29.90;;;;;;4366012;32;20081;-69
2021/06/19 10:35:49;;;;;;;6.73;1.90;;;26.50;30.00;;;;;;4349794;32;20089;-69
2021/06/19 10:38:17;;;;;;;6.95;1.73;;;26.30;30.00;;;;;;4351156;32;20174;-69
2021/06/19 10:40:57;;;;;;;4.30;1.85;;;26.50;30.00;;;;;;4351002;32;20152;-69
2021/06/19 10:43:24;;;;;;;5.00;1.67;;;27.40;30.40;;;;;;4351359;32;20151;-71
2021/06/19 10:45:51;;;;;;;1.85;1.55;;;27.20;28.90;;;;;;4350709;32;20077;-71
2021/06/19 10:48:34;;;;;;;2.45;1.67;;;27.10;30.10;;;;;;4338892;32;20073;-70
2021/06/19 10:51:24;;;;;;;2.28;1.92;;;27.20;29.90;;;;;;4340207;32;20084;-70
2021/06/19 10:54:16;;;;;;;1.95;1.70;;;27.40;29.80;;;;;;4350648;32;20161;-69
2021/06/19 10:56:58;;;;;;;1.90;1.67;;;27.60;29.10;;;;;;4335483;32;20081;-70
2021/06/19 10:59:32;;;;;;;4.10;2.00;;;27.00;29.30;;;;;;4335394;32;20070;-70
2021/06/19 11:02:00;;;;;;;3.72;1.80;;;27.00;29.60;;;;;;4348415;32;20164;-70
2021/06/19 11:04:40;;;;;;;4.53;1.55;;;27.10;29.10;;;;;;4349336;32;20097;-69
2021/06/19 11:07:45;;;;;;;4.57;2.17;;;27.50;29.20;;;;;;4362555;32;20092;-70
2021/06/19 11:10:47;;;;;;;5.93;2.15;;;26.90;29.50;;;;;;4364824;32;20535;-70
2021/06/19 11:13:29;;;;;;;1.75;1.50;;;27.50;30.50;;;;;;4374871;32;20065;-69
2021/06/19 11:15:59;;;;;;;2.75;1.70;;;27.10;29.40;;;;;;4374299;32;20518;-69
2021/06/19 11:19:01;;;;;;;3.90;1.48;;;27.10;29.60;;;;;;4375832;32;20078;-70
2021/06/19 11:21:30;;;;;;;1.87;1.65;;;27.60;28.90;;;;;;4312146;33;20166;-69
2021/06/19 11:24:03;;;;;;;2.45;1.50;;;27.40;29.60;;;;;;4338985;32;20072;-69
2021/06/19 11:29:41;;;;;;;2.90;1.73;;;27.40;29.30;;;;;;4352634;32;20065;-70
2021/06/19 11:32:32;;;;;;;2.20;1.62;;;27.60;29.70;;;;;;4352217;32;20094;-69
2021/06/19 11:35:04;;;;;;;3.05;1.77;;;27.80;29.60;;;;;;4328506;32;20515;-70
2021/06/19 11:38:07;;;;;;;3.75;1.75;;;28.20;31.50;;;;;;4325101;32;20078;-70
2021/06/19 11:40:38;;;;;;;3.97;1.92;;;27.20;30.00;;;;;;4362336;32;20158;-69
2021/06/19 11:43:05;;;;;;;2.17;1.70;;;27.60;29.50;;;;;;4325553;32;20082;-69
2021/06/19 11:45:36;;;;;;;3.78;1.80;;;28.10;29.60;;;;;;4313170;32;20158;-70
2021/06/19 11:48:14;;;;;;;2.12;1.90;;;27.90;30.00;;;;;;4313744;32;20077;-70
2021/06/19 11:50:44;;;;;;;2.22;1.48;;;27.90;29.60;;;;;;4326246;32;20074;-69
2021/06/19 11:53:27;;;;;;;1.98;1.50;;;27.20;29.60;;;;;;4325548;32;20441;-69
2021/06/19 11:56:25;;;;;;;1.92;1.58;;;28.00;29.00;;;;;;4337396;32;20158;-69
2021/06/19 11:59:05;;;;;;;2.47;1.77;;;27.90;29.10;;;;;;4328793;32;20070;-69
2021/06/19 12:01:42;;;;;;;1.87;1.60;;;28.10;29.50;;;;;;4337112;32;20493;-70
2021/06/19 12:04:26;;;;;;;2.45;1.80;;;27.60;30.00;;;;;;4325344;32;20146;-70
2021/06/19 12:07:02;;;;;;;2.50;1.62;;;27.90;29.90;;;;;;4349147;32;20067;-69
2021/06/19 12:09:32;;;;;;;;;;;27.70;29.60;;;;;;4326204;32;20154;-69
2021/06/19 12:12:14;;;;;;;4.43;2.00;;;28.20;30.10;;;;;;4349488;32;19992;-70
2021/06/19 12:14:41;;;;;;;2.80;2.05;;;27.50;30.40;;;;;;4327304;32;20085;-69
2021/06/19 12:17:09;;;;;;;2.62;2.10;;;28.20;29.60;;;;;;4325018;32;20157;-71
2021/06/19 12:19:39;;;;;;;4.60;2.12;;;28.10;30.40;;;;;;4350233;32;20175;-68
2021/06/19 12:22:17;;;;;;;4.53;1.95;;;28.20;29.70;;;;;;4326509;32;20167;-70
2021/06/19 12:24:47;;;;;;;2.62;1.67;;;28.00;29.20;;;;;;4325628;32;20082;-69
2021/06/19 12:27:18;;;;;;;4.35;1.80;;;28.10;30.00;;;;;;4325529;32;20174;-70
2021/06/19 12:29:56;;;;;;;2.65;2.08;;;28.80;28.70;;;;;;4326526;32;20162;-70
2021/06/19 12:32:34;;;;;;;2.20;1.80;;;28.00;29.30;;;;;;4340308;32;20516;-70
2021/06/19 12:35:15;;;;;;;2.28;1.60;;;28.30;29.30;;;;;;4331521;32;20062;-70
2021/06/19 12:37:55;;;;;;;3.65;1.90;;;27.70;29.70;;;;;;4352239;32;20092;-70
2021/06/19 12:40:35;;;;;;;10.25;3.17;;;28.70;29.00;;;;;;4339648;32;20113;-69
2021/06/19 12:43:08;;;;;;;3.75;2.05;;;28.20;28.80;;;;;;4351357;32;20080;-69
2021/06/19 12:45:45;;;;;;;6.68;2.30;;;28.40;28.40;;;;;;4352181;32;20509;-70
2021/06/19 12:48:33;;;;;;;5.18;1.73;;;28.50;29.30;;;;;;4351530;32;20077;-70
2021/06/19 12:51:01;;;;;;;3.22;1.90;;;28.70;29.60;;;;;;4364502;32;20093;-70
2021/06/19 12:53:34;;;;;;;2.37;1.80;;;28.70;28.40;;;;;;4351132;32;20080;-70
2021/06/19 12:56:10;;;;;;;3.83;2.08;;;28.50;29.20;;;;;;4326984;32;20104;-70
2021/06/19 12:58:40;;;;;;;3.17;2.10;;;28.60;28.50;;;;;;4351377;32;20086;-70
2021/06/19 13:01:18;;;;;;;5.05;2.60;;;28.30;28.60;;;;;;4363378;32;20159;-70
2021/06/19 13:04:02;;;;;;;2.47;1.90;;;28.10;29.50;;;;;;4377378;32;20070;-70
2021/06/19 13:06:35;;;;;;;2.45;1.80;;;28.00;28.30;;;;;;4336284;32;20120;-69